sensor_id;sensor_type;location;lat;lon;timestamp;pressure;altitude;pressure_sealevel;temperature;humidity
45991;BME280;31721;41.740;-88.000;2022-09-13T00:01:09;98269.97;;;16.92;54.61
45991;BME280;31721;41.740;-88.000;2022-09-13T00:03:37;98271.39;;;16.87;54.81
45991;BME280;31721;41.740;-88.000;2022-09-13T00:06:10;98275.86;;;16.84;54.74
45991;BME280;31721;41.740;-88.000;2022-09-13T00:08:38;98277.65;;;16.89;55.04
45991;BME280;31721;41.740;-88.000;2022-09-13T00:11:12;98276.70;;;16.72;54.84
45991;BME280;31721;41.740;-88.000;2022-09-13T00:13:41;98278.80;;;16.62;54.87
45991;BME280;31721;41.740;-88.000;2022-09-13T00:16:11;98279.54;;;16.64;54.98
45991;BME280;31721;41.740;-88.000;2022-09-13T00:18:40;98281.67;;;16.45;55.00
45991;BME280;31721;41.740;-88.000;2022-09-13T00:21:11;98286.44;;;16.49;55.08
45991;BME280;31721;41.740;-88.000;2022-09-13T00:23:41;98283.24;;;16.41;55.35
45991;BME280;31721;41.740;-88.000;2022-09-13T00:26:12;98287.09;;;16.36;55.41
45991;BME280;31721;41.740;-88.000;2022-09-13T00:28:41;98291.09;;;16.31;55.71
45991;BME280;31721;41.740;-88.000;2022-09-13T00:31:09;98293.11;;;16.25;55.58
45991;BME280;31721;41.740;-88.000;2022-09-13T00:33:38;98294.91;;;16.19;55.54
45991;BME280;31721;41.740;-88.000;2022-09-13T00:36:08;98303.28;;;16.12;55.79
45991;BME280;31721;41.740;-88.000;2022-09-13T00:38:36;98305.41;;;16.06;55.79
45991;BME280;31721;41.740;-88.000;2022-09-13T00:41:06;98307.89;;;16.00;56.01
45991;BME280;31721;41.740;-88.000;2022-09-13T00:43:44;98314.47;;;15.96;56.04
45991;BME280;31721;41.740;-88.000;2022-09-13T00:46:18;98319.57;;;16.00;56.22
45991;BME280;31721;41.740;-88.000;2022-09-13T00:48:50;98320.77;;;15.92;56.22
45991;BME280;31721;41.740;-88.000;2022-09-13T00:51:20;98325.13;;;15.89;56.29
45991;BME280;31721;41.740;-88.000;2022-09-13T00:53:51;98326.64;;;15.86;56.36
45991;BME280;31721;41.740;-88.000;2022-09-13T00:56:25;98329.52;;;15.91;56.52
45991;BME280;31721;41.740;-88.000;2022-09-13T00:58:58;98334.80;;;15.84;56.54
45991;BME280;31721;41.740;-88.000;2022-09-13T01:01:32;98333.91;;;15.65;56.60
45991;BME280;31721;41.740;-88.000;2022-09-13T01:04:03;98339.51;;;15.63;56.54
45991;BME280;31721;41.740;-88.000;2022-09-13T01:06:33;98340.25;;;15.59;56.53
45991;BME280;31721;41.740;-88.000;2022-09-13T01:09:04;98341.25;;;15.48;56.75
45991;BME280;31721;41.740;-88.000;2022-09-13T01:11:39;98343.80;;;15.49;56.86
45991;BME280;31721;41.740;-88.000;2022-09-13T01:14:09;98348.09;;;15.44;56.63
45991;BME280;31721;41.740;-88.000;2022-09-13T01:16:38;98354.80;;;15.39;56.81
45991;BME280;31721;41.740;-88.000;2022-09-13T01:19:05;98360.80;;;15.42;57.05
45991;BME280;31721;41.740;-88.000;2022-09-13T01:21:58;98357.94;;;15.38;57.03
45991;BME280;31721;41.740;-88.000;2022-09-13T01:24:47;98355.93;;;15.31;57.14
45991;BME280;31721;41.740;-88.000;2022-09-13T01:27:40;98357.07;;;15.24;57.20
45991;BME280;31721;41.740;-88.000;2022-09-13T01:30:13;98360.48;;;15.23;57.25
45991;BME280;31721;41.740;-88.000;2022-09-13T01:33:00;98362.69;;;15.20;57.08
45991;BME280;31721;41.740;-88.000;2022-09-13T01:35:44;98367.32;;;15.13;57.34
45991;BME280;31721;41.740;-88.000;2022-09-13T01:38:28;98367.35;;;15.08;57.39
45991;BME280;31721;41.740;-88.000;2022-09-13T01:41:09;98363.63;;;15.12;57.57
45991;BME280;31721;41.740;-88.000;2022-09-13T01:43:49;98358.29;;;15.13;57.56
45991;BME280;31721;41.740;-88.000;2022-09-13T01:46:25;98358.78;;;15.01;57.35
45991;BME280;31721;41.740;-88.000;2022-09-13T01:48:58;98363.62;;;14.95;57.64
45991;BME280;31721;41.740;-88.000;2022-09-13T01:51:32;98367.53;;;14.85;57.72
45991;BME280;31721;41.740;-88.000;2022-09-13T01:54:12;98367.92;;;14.80;57.95
45991;BME280;31721;41.740;-88.000;2022-09-13T01:56:50;98369.73;;;14.91;57.95
45991;BME280;31721;41.740;-88.000;2022-09-13T01:59:26;98372.41;;;14.80;58.24
45991;BME280;31721;41.740;-88.000;2022-09-13T02:01:59;98370.64;;;14.68;58.26
45991;BME280;31721;41.740;-88.000;2022-09-13T02:04:35;98373.12;;;14.74;58.37
45991;BME280;31721;41.740;-88.000;2022-09-13T02:07:08;98369.37;;;14.79;58.25
45991;BME280;31721;41.740;-88.000;2022-09-13T02:09:40;98366.65;;;14.65;58.33
45991;BME280;31721;41.740;-88.000;2022-09-13T02:12:13;98363.37;;;14.66;58.20
45991;BME280;31721;41.740;-88.000;2022-09-13T02:14:45;98362.00;;;14.62;58.35
45991;BME280;31721;41.740;-88.000;2022-09-13T02:17:24;98361.61;;;14.51;58.44
45991;BME280;31721;41.740;-88.000;2022-09-13T02:19:57;98367.81;;;14.48;58.52
45991;BME280;31721;41.740;-88.000;2022-09-13T02:22:31;98367.43;;;14.46;58.66
45991;BME280;31721;41.740;-88.000;2022-09-13T02:25:05;98367.06;;;14.50;58.72
45991;BME280;31721;41.740;-88.000;2022-09-13T02:27:37;98368.51;;;14.51;58.70
45991;BME280;31721;41.740;-88.000;2022-09-13T02:30:10;98368.48;;;14.58;58.71
45991;BME280;31721;41.740;-88.000;2022-09-13T02:32:41;98367.75;;;14.48;58.85
45991;BME280;31721;41.740;-88.000;2022-09-13T02:35:15;98365.79;;;14.56;58.86
45991;BME280;31721;41.740;-88.000;2022-09-13T02:37:47;98366.62;;;14.48;59.05
45991;BME280;31721;41.740;-88.000;2022-09-13T02:40:21;98361.35;;;14.54;59.24
45991;BME280;31721;41.740;-88.000;2022-09-13T02:42:57;98359.30;;;14.66;59.03
45991;BME280;31721;41.740;-88.000;2022-09-13T02:45:32;98360.82;;;14.64;59.25
45991;BME280;31721;41.740;-88.000;2022-09-13T02:48:06;98366.65;;;14.65;59.09
45991;BME280;31721;41.740;-88.000;2022-09-13T02:50:46;98370.78;;;14.60;59.28
45991;BME280;31721;41.740;-88.000;2022-09-13T02:53:22;98375.77;;;14.62;59.40
45991;BME280;31721;41.740;-88.000;2022-09-13T02:55:57;98377.16;;;14.64;59.57
45991;BME280;31721;41.740;-88.000;2022-09-13T02:58:32;98376.89;;;14.59;59.51
45991;BME280;31721;41.740;-88.000;2022-09-13T03:01:02;98377.03;;;14.72;59.60
45991;BME280;31721;41.740;-88.000;2022-09-13T03:03:30;98376.30;;;14.59;59.77
45991;BME280;31721;41.740;-88.000;2022-09-13T03:05:58;98378.74;;;14.80;59.80
45991;BME280;31721;41.740;-88.000;2022-09-13T03:08:26;98373.69;;;14.74;59.70
45991;BME280;31721;41.740;-88.000;2022-09-13T03:11:01;98374.52;;;14.83;59.81
45991;BME280;31721;41.740;-88.000;2022-09-13T03:13:44;98373.74;;;14.71;59.71
45991;BME280;31721;41.740;-88.000;2022-09-13T03:16:29;98371.35;;;14.74;59.75
45991;BME280;31721;41.740;-88.000;2022-09-13T03:19:27;98366.90;;;14.79;59.84
45991;BME280;31721;41.740;-88.000;2022-09-13T03:22:14;98372.28;;;14.78;59.85
45991;BME280;31721;41.740;-88.000;2022-09-13T03:24:57;98372.95;;;14.88;60.02
45991;BME280;31721;41.740;-88.000;2022-09-13T03:27:34;98370.80;;;14.84;60.00
45991;BME280;31721;41.740;-88.000;2022-09-13T03:30:06;98370.75;;;14.85;60.07
45991;BME280;31721;41.740;-88.000;2022-09-13T03:32:40;98365.15;;;14.92;60.10
45991;BME280;31721;41.740;-88.000;2022-09-13T03:35:17;98364.22;;;15.01;60.01
45991;BME280;31721;41.740;-88.000;2022-09-13T03:37:56;98361.45;;;14.97;60.06
45991;BME280;31721;41.740;-88.000;2022-09-13T03:40:33;98362.36;;;15.00;60.17
45991;BME280;31721;41.740;-88.000;2022-09-13T03:43:07;98362.89;;;15.04;60.16
45991;BME280;31721;41.740;-88.000;2022-09-13T03:45:41;98366.31;;;15.07;60.12
45991;BME280;31721;41.740;-88.000;2022-09-13T03:48:11;98365.40;;;15.11;60.10
45991;BME280;31721;41.740;-88.000;2022-09-13T03:50:41;98366.86;;;15.14;60.18
45991;BME280;31721;41.740;-88.000;2022-09-13T03:53:11;98363.65;;;15.18;60.20
45991;BME280;31721;41.740;-88.000;2022-09-13T03:55:42;98364.80;;;15.21;60.17
45991;BME280;31721;41.740;-88.000;2022-09-13T03:58:12;98362.87;;;15.22;60.25
45991;BME280;31721;41.740;-88.000;2022-09-13T04:00:40;98359.85;;;15.18;60.31
45991;BME280;31721;41.740;-88.000;2022-09-13T04:03:08;98360.49;;;15.32;60.20
45991;BME280;31721;41.740;-88.000;2022-09-13T04:05:36;98363.36;;;15.34;59.97
45991;BME280;31721;41.740;-88.000;2022-09-13T04:08:06;98363.53;;;15.26;60.21
45991;BME280;31721;41.740;-88.000;2022-09-13T04:10:35;98365.27;;;15.40;60.13
45991;BME280;31721;41.740;-88.000;2022-09-13T04:13:03;98369.13;;;15.43;60.12
45991;BME280;31721;41.740;-88.000;2022-09-13T04:15:31;98369.36;;;15.47;60.11
45991;BME280;31721;41.740;-88.000;2022-09-13T04:18:00;98368.50;;;15.41;60.00
45991;BME280;31721;41.740;-88.000;2022-09-13T04:20:27;98370.54;;;15.51;60.08
45991;BME280;31721;41.740;-88.000;2022-09-13T04:22:56;98369.29;;;15.42;60.15
45991;BME280;31721;41.740;-88.000;2022-09-13T04:25:24;98367.06;;;15.44;60.17
45991;BME280;31721;41.740;-88.000;2022-09-13T04:27:53;98366.08;;;15.47;60.30
45991;BME280;31721;41.740;-88.000;2022-09-13T04:30:22;98363.00;;;15.48;60.38
45991;BME280;31721;41.740;-88.000;2022-09-13T04:32:50;98364.35;;;15.43;60.41
45991;BME280;31721;41.740;-88.000;2022-09-13T04:35:19;98365.75;;;15.59;60.37
45991;BME280;31721;41.740;-88.000;2022-09-13T04:37:46;98370.94;;;15.50;60.56
45991;BME280;31721;41.740;-88.000;2022-09-13T04:40:14;98371.26;;;15.55;60.72
45991;BME280;31721;41.740;-88.000;2022-09-13T04:42:43;98364.72;;;15.59;60.63
45991;BME280;31721;41.740;-88.000;2022-09-13T04:45:11;98358.80;;;15.75;60.52
45991;BME280;31721;41.740;-88.000;2022-09-13T04:47:39;98360.16;;;15.75;60.53
45991;BME280;31721;41.740;-88.000;2022-09-13T04:50:07;98361.97;;;15.65;60.60
45991;BME280;31721;41.740;-88.000;2022-09-13T04:52:35;98365.16;;;15.68;60.85
45991;BME280;31721;41.740;-88.000;2022-09-13T04:55:04;98368.40;;;15.84;60.81
45991;BME280;31721;41.740;-88.000;2022-09-13T04:57:32;98369.53;;;15.87;60.64
45991;BME280;31721;41.740;-88.000;2022-09-13T05:00:01;98372.36;;;15.86;60.63
45991;BME280;31721;41.740;-88.000;2022-09-13T05:02:29;98375.20;;;15.78;60.83
45991;BME280;31721;41.740;-88.000;2022-09-13T05:04:57;98377.17;;;15.86;61.00
45991;BME280;31721;41.740;-88.000;2022-09-13T05:07:25;98376.01;;;15.79;61.00
45991;BME280;31721;41.740;-88.000;2022-09-13T05:09:53;98376.89;;;15.73;61.07
45991;BME280;31721;41.740;-88.000;2022-09-13T05:12:21;98378.69;;;15.82;61.20
45991;BME280;31721;41.740;-88.000;2022-09-13T05:14:49;98369.52;;;15.77;61.24
45991;BME280;31721;41.740;-88.000;2022-09-13T05:17:16;98360.58;;;15.92;61.29
45991;BME280;31721;41.740;-88.000;2022-09-13T05:19:44;98353.00;;;16.05;61.21
45991;BME280;31721;41.740;-88.000;2022-09-13T05:22:12;98348.85;;;16.09;61.29
45991;BME280;31721;41.740;-88.000;2022-09-13T05:24:40;98346.67;;;16.15;61.23
45991;BME280;31721;41.740;-88.000;2022-09-13T05:27:09;98346.32;;;16.28;61.15
45991;BME280;31721;41.740;-88.000;2022-09-13T05:29:36;98345.90;;;16.33;60.97
45991;BME280;31721;41.740;-88.000;2022-09-13T05:32:04;98345.24;;;16.25;60.98
45991;BME280;31721;41.740;-88.000;2022-09-13T05:34:32;98343.77;;;16.27;61.12
45991;BME280;31721;41.740;-88.000;2022-09-13T05:37:00;98343.93;;;16.09;61.20
45991;BME280;31721;41.740;-88.000;2022-09-13T05:39:28;98342.26;;;16.28;61.34
45991;BME280;31721;41.740;-88.000;2022-09-13T05:41:56;98337.93;;;16.45;61.23
45991;BME280;31721;41.740;-88.000;2022-09-13T05:44:24;98334.87;;;16.74;60.88
45991;BME280;31721;41.740;-88.000;2022-09-13T05:46:52;98337.28;;;16.74;60.99
45991;BME280;31721;41.740;-88.000;2022-09-13T05:49:20;98341.40;;;16.63;61.00
45991;BME280;31721;41.740;-88.000;2022-09-13T05:51:47;98342.63;;;16.75;61.03
45991;BME280;31721;41.740;-88.000;2022-09-13T05:54:15;98337.73;;;16.68;61.16
45991;BME280;31721;41.740;-88.000;2022-09-13T05:56:43;98333.60;;;16.60;61.47
45991;BME280;31721;41.740;-88.000;2022-09-13T05:59:12;98327.54;;;16.77;61.64
45991;BME280;31721;41.740;-88.000;2022-09-13T06:01:40;98331.74;;;16.66;61.79
45991;BME280;31721;41.740;-88.000;2022-09-13T06:04:08;98336.66;;;16.58;62.07
45991;BME280;31721;41.740;-88.000;2022-09-13T06:06:36;98329.88;;;16.44;62.45
45991;BME280;31721;41.740;-88.000;2022-09-13T06:09:03;98328.09;;;16.46;62.63
45991;BME280;31721;41.740;-88.000;2022-09-13T06:11:31;98326.47;;;16.29;62.97
45991;BME280;31721;41.740;-88.000;2022-09-13T06:13:59;98330.23;;;16.34;63.17
45991;BME280;31721;41.740;-88.000;2022-09-13T06:16:27;98337.58;;;16.17;63.40
45991;BME280;31721;41.740;-88.000;2022-09-13T06:18:56;98341.22;;;16.16;63.69
45991;BME280;31721;41.740;-88.000;2022-09-13T06:21:24;98342.04;;;16.18;63.82
45991;BME280;31721;41.740;-88.000;2022-09-13T06:23:52;98345.19;;;16.10;63.98
45991;BME280;31721;41.740;-88.000;2022-09-13T06:26:22;98346.86;;;15.97;64.22
45991;BME280;31721;41.740;-88.000;2022-09-13T06:28:52;98347.24;;;15.97;64.38
45991;BME280;31721;41.740;-88.000;2022-09-13T06:31:21;98349.40;;;15.87;64.31
45991;BME280;31721;41.740;-88.000;2022-09-13T06:33:55;98351.81;;;15.79;64.63
45991;BME280;31721;41.740;-88.000;2022-09-13T06:36:23;98354.88;;;15.82;64.66
45991;BME280;31721;41.740;-88.000;2022-09-13T06:38:51;98357.71;;;15.87;64.79
45991;BME280;31721;41.740;-88.000;2022-09-13T06:41:20;98361.42;;;15.73;64.69
45991;BME280;31721;41.740;-88.000;2022-09-13T06:43:52;98359.67;;;15.73;64.77
45991;BME280;31721;41.740;-88.000;2022-09-13T06:46:21;98356.41;;;15.79;65.07
45991;BME280;31721;41.740;-88.000;2022-09-13T06:48:49;98350.16;;;16.01;64.87
45991;BME280;31721;41.740;-88.000;2022-09-13T06:51:19;98356.75;;;15.87;64.80
45991;BME280;31721;41.740;-88.000;2022-09-13T06:53:48;98351.83;;;15.96;65.01
45991;BME280;31721;41.740;-88.000;2022-09-13T06:56:18;98351.65;;;15.87;64.89
45991;BME280;31721;41.740;-88.000;2022-09-13T06:58:48;98355.12;;;15.89;64.97
45991;BME280;31721;41.740;-88.000;2022-09-13T07:01:18;98354.82;;;15.94;65.04
45991;BME280;31721;41.740;-88.000;2022-09-13T07:03:48;98358.51;;;15.94;65.05
45991;BME280;31721;41.740;-88.000;2022-09-13T07:06:17;98361.43;;;15.88;65.25
45991;BME280;31721;41.740;-88.000;2022-09-13T07:08:47;98366.54;;;15.80;65.32
45991;BME280;31721;41.740;-88.000;2022-09-13T07:11:16;98365.08;;;15.73;65.47
45991;BME280;31721;41.740;-88.000;2022-09-13T07:13:47;98367.57;;;15.78;65.67
45991;BME280;31721;41.740;-88.000;2022-09-13T07:16:16;98365.69;;;15.82;65.84
45991;BME280;31721;41.740;-88.000;2022-09-13T07:18:49;98361.63;;;15.94;65.84
45991;BME280;31721;41.740;-88.000;2022-09-13T07:21:17;98362.28;;;16.08;65.68
45991;BME280;31721;41.740;-88.000;2022-09-13T07:23:45;98363.30;;;16.00;65.63
45991;BME280;31721;41.740;-88.000;2022-09-13T07:26:13;98364.51;;;16.03;65.52
45991;BME280;31721;41.740;-88.000;2022-09-13T07:28:42;98365.44;;;16.02;65.78
45991;BME280;31721;41.740;-88.000;2022-09-13T07:31:12;98365.64;;;16.04;65.69
45991;BME280;31721;41.740;-88.000;2022-09-13T07:33:42;98368.81;;;15.99;65.74
45991;BME280;31721;41.740;-88.000;2022-09-13T07:36:11;98370.58;;;16.10;65.87
45991;BME280;31721;41.740;-88.000;2022-09-13T07:38:40;98376.19;;;16.11;65.75
45991;BME280;31721;41.740;-88.000;2022-09-13T07:41:11;98376.15;;;16.05;65.88
45991;BME280;31721;41.740;-88.000;2022-09-13T07:43:39;98377.15;;;16.07;66.06
45991;BME280;31721;41.740;-88.000;2022-09-13T07:46:09;98374.88;;;16.04;66.03
45991;BME280;31721;41.740;-88.000;2022-09-13T07:48:38;98372.37;;;16.20;65.91
45991;BME280;31721;41.740;-88.000;2022-09-13T07:51:08;98370.37;;;16.30;65.59
45991;BME280;31721;41.740;-88.000;2022-09-13T07:53:37;98369.32;;;16.27;65.63
45991;BME280;31721;41.740;-88.000;2022-09-13T07:56:08;98369.05;;;16.39;65.57
45991;BME280;31721;41.740;-88.000;2022-09-13T07:58:37;98370.63;;;16.43;65.36
45991;BME280;31721;41.740;-88.000;2022-09-13T08:01:07;98369.89;;;16.32;65.48
45991;BME280;31721;41.740;-88.000;2022-09-13T08:03:36;98364.67;;;16.44;65.38
45991;BME280;31721;41.740;-88.000;2022-09-13T08:06:05;98360.07;;;16.47;65.46
45991;BME280;31721;41.740;-88.000;2022-09-13T08:08:35;98360.62;;;16.37;65.34
45991;BME280;31721;41.740;-88.000;2022-09-13T08:11:04;98362.08;;;16.46;65.33
45991;BME280;31721;41.740;-88.000;2022-09-13T08:13:33;98363.10;;;16.36;65.23
45991;BME280;31721;41.740;-88.000;2022-09-13T08:16:02;98366.16;;;16.48;65.49
45991;BME280;31721;41.740;-88.000;2022-09-13T08:18:30;98369.46;;;16.48;65.48
45991;BME280;31721;41.740;-88.000;2022-09-13T08:20:59;98370.74;;;16.34;65.59
45991;BME280;31721;41.740;-88.000;2022-09-13T08:23:27;98370.89;;;16.45;65.27
45991;BME280;31721;41.740;-88.000;2022-09-13T08:26:00;98372.59;;;16.37;65.52
45991;BME280;31721;41.740;-88.000;2022-09-13T08:28:27;98372.09;;;16.38;65.46
45991;BME280;31721;41.740;-88.000;2022-09-13T08:30:55;98372.54;;;16.39;65.48
45991;BME280;31721;41.740;-88.000;2022-09-13T08:33:23;98372.75;;;16.40;65.56
45991;BME280;31721;41.740;-88.000;2022-09-13T08:35:51;98370.11;;;16.68;65.30
45991;BME280;31721;41.740;-88.000;2022-09-13T08:38:19;98368.31;;;16.60;65.34
45991;BME280;31721;41.740;-88.000;2022-09-13T08:40:51;98362.86;;;16.75;64.92
45991;BME280;31721;41.740;-88.000;2022-09-13T08:43:28;98354.80;;;17.16;64.08
45991;BME280;31721;41.740;-88.000;2022-09-13T08:46:00;98348.31;;;17.19;63.82
45991;BME280;31721;41.740;-88.000;2022-09-13T08:48:33;98353.76;;;17.06;63.93
45991;BME280;31721;41.740;-88.000;2022-09-13T08:51:04;98354.21;;;16.95;63.87
45991;BME280;31721;41.740;-88.000;2022-09-13T08:53:41;98365.02;;;16.72;63.96
45991;BME280;31721;41.740;-88.000;2022-09-13T08:56:12;98359.17;;;16.59;64.27
45991;BME280;31721;41.740;-88.000;2022-09-13T08:58:54;98356.70;;;16.50;64.51
45991;BME280;31721;41.740;-88.000;2022-09-13T09:01:37;98360.73;;;16.46;64.93
45991;BME280;31721;41.740;-88.000;2022-09-13T09:04:18;98367.08;;;16.36;65.09
45991;BME280;31721;41.740;-88.000;2022-09-13T09:06:52;98371.80;;;16.37;65.20
45991;BME280;31721;41.740;-88.000;2022-09-13T09:09:31;98375.33;;;16.40;65.32
45991;BME280;31721;41.740;-88.000;2022-09-13T09:12:10;98376.64;;;16.41;65.39
45991;BME280;31721;41.740;-88.000;2022-09-13T09:14:44;98376.54;;;16.41;65.42
45991;BME280;31721;41.740;-88.000;2022-09-13T09:17:17;98378.16;;;16.44;65.51
45991;BME280;31721;41.740;-88.000;2022-09-13T09:19:53;98379.06;;;16.38;65.64
45991;BME280;31721;41.740;-88.000;2022-09-13T09:22:31;98382.16;;;16.32;65.55
45991;BME280;31721;41.740;-88.000;2022-09-13T09:25:01;98382.15;;;16.35;65.69
45991;BME280;31721;41.740;-88.000;2022-09-13T09:27:30;98382.44;;;16.47;65.71
45991;BME280;31721;41.740;-88.000;2022-09-13T09:29:59;98389.66;;;16.39;65.66
45991;BME280;31721;41.740;-88.000;2022-09-13T09:32:42;98393.20;;;16.35;65.65
45991;BME280;31721;41.740;-88.000;2022-09-13T09:35:20;98395.99;;;16.39;65.74
45991;BME280;31721;41.740;-88.000;2022-09-13T09:38:06;98397.13;;;16.40;65.69
45991;BME280;31721;41.740;-88.000;2022-09-13T09:40:37;98397.78;;;16.33;65.79
45991;BME280;31721;41.740;-88.000;2022-09-13T09:43:14;98398.69;;;16.45;65.87
45991;BME280;31721;41.740;-88.000;2022-09-13T09:45:44;98397.28;;;16.60;65.53
45991;BME280;31721;41.740;-88.000;2022-09-13T09:48:17;98397.62;;;16.56;65.48
45991;BME280;31721;41.740;-88.000;2022-09-13T09:50:50;98403.67;;;16.51;65.37
45991;BME280;31721;41.740;-88.000;2022-09-13T09:53:23;98403.04;;;16.59;65.66
45991;BME280;31721;41.740;-88.000;2022-09-13T09:55:58;98401.21;;;16.52;65.29
45991;BME280;31721;41.740;-88.000;2022-09-13T09:58:41;98402.30;;;16.43;65.45
45991;BME280;31721;41.740;-88.000;2022-09-13T10:01:17;98394.80;;;16.52;65.45
45991;BME280;31721;41.740;-88.000;2022-09-13T10:03:51;98392.80;;;16.55;65.31
45991;BME280;31721;41.740;-88.000;2022-09-13T10:06:23;98390.59;;;16.57;65.19
45991;BME280;31721;41.740;-88.000;2022-09-13T10:08:58;98387.31;;;16.45;65.37
45991;BME280;31721;41.740;-88.000;2022-09-13T10:11:44;98391.66;;;16.53;65.47
45991;BME280;31721;41.740;-88.000;2022-09-13T10:14:34;98393.59;;;16.53;65.60
45991;BME280;31721;41.740;-88.000;2022-09-13T10:17:05;98395.78;;;16.55;65.48
45991;BME280;31721;41.740;-88.000;2022-09-13T10:19:40;98402.44;;;16.56;65.43
45991;BME280;31721;41.740;-88.000;2022-09-13T10:22:11;98402.21;;;16.57;65.53
45991;BME280;31721;41.740;-88.000;2022-09-13T10:24:39;98406.02;;;16.52;65.55
45991;BME280;31721;41.740;-88.000;2022-09-13T10:27:20;98405.56;;;16.59;65.51
45991;BME280;31721;41.740;-88.000;2022-09-13T10:29:51;98407.38;;;16.61;65.39
45991;BME280;31721;41.740;-88.000;2022-09-13T10:32:20;98413.00;;;16.57;65.50
45991;BME280;31721;41.740;-88.000;2022-09-13T10:34:49;98418.36;;;16.52;65.24
45991;BME280;31721;41.740;-88.000;2022-09-13T10:37:19;98419.57;;;16.50;65.41
45991;BME280;31721;41.740;-88.000;2022-09-13T10:39:55;98418.98;;;16.59;65.44
45991;BME280;31721;41.740;-88.000;2022-09-13T10:42:26;98418.65;;;16.58;65.29
45991;BME280;31721;41.740;-88.000;2022-09-13T10:44:57;98420.30;;;16.53;65.27
45991;BME280;31721;41.740;-88.000;2022-09-13T10:47:29;98420.93;;;16.26;65.47
45991;BME280;31721;41.740;-88.000;2022-09-13T10:50:11;98418.94;;;16.31;65.57
45991;BME280;31721;41.740;-88.000;2022-09-13T10:52:43;98418.98;;;16.48;65.60
45991;BME280;31721;41.740;-88.000;2022-09-13T10:55:31;98413.74;;;16.43;65.62
45991;BME280;31721;41.740;-88.000;2022-09-13T10:58:17;98416.60;;;16.43;65.68
45991;BME280;31721;41.740;-88.000;2022-09-13T11:01:06;98419.40;;;16.41;65.36
45991;BME280;31721;41.740;-88.000;2022-09-13T11:03:51;98421.11;;;16.37;65.21
45991;BME280;31721;41.740;-88.000;2022-09-13T11:06:26;98421.53;;;16.41;65.30
45991;BME280;31721;41.740;-88.000;2022-09-13T11:09:07;98424.25;;;16.46;65.32
45991;BME280;31721;41.740;-88.000;2022-09-13T11:11:41;98424.49;;;16.50;65.33
45991;BME280;31721;41.740;-88.000;2022-09-13T11:14:23;98424.74;;;16.51;65.01
45991;BME280;31721;41.740;-88.000;2022-09-13T11:17:01;98427.56;;;16.56;64.74
45991;BME280;31721;41.740;-88.000;2022-09-13T11:28:12;98431.33;;;16.42;64.88
45991;BME280;31721;41.740;-88.000;2022-09-13T11:30:55;98432.67;;;16.46;64.99
45991;BME280;31721;41.740;-88.000;2022-09-13T11:33:34;98436.71;;;16.59;64.56
45991;BME280;31721;41.740;-88.000;2022-09-13T11:36:26;98439.51;;;16.61;64.37
45991;BME280;31721;41.740;-88.000;2022-09-13T11:39:07;98437.78;;;16.45;64.22
45991;BME280;31721;41.740;-88.000;2022-09-13T11:41:44;98442.90;;;16.48;64.39
45991;BME280;31721;41.740;-88.000;2022-09-13T11:44:30;98450.09;;;16.47;64.50
45991;BME280;31721;41.740;-88.000;2022-09-13T11:47:07;98451.90;;;16.35;64.33
45991;BME280;31721;41.740;-88.000;2022-09-13T11:49:47;98454.92;;;16.30;64.68
45991;BME280;31721;41.740;-88.000;2022-09-13T11:52:36;98454.74;;;16.36;64.66
45991;BME280;31721;41.740;-88.000;2022-09-13T11:55:14;98458.77;;;16.33;64.55
45991;BME280;31721;41.740;-88.000;2022-09-13T11:57:46;98461.89;;;16.38;64.69
45991;BME280;31721;41.740;-88.000;2022-09-13T12:00:20;98462.73;;;16.26;64.61
45991;BME280;31721;41.740;-88.000;2022-09-13T12:02:56;98465.56;;;16.42;64.45
45991;BME280;31721;41.740;-88.000;2022-09-13T12:05:28;98468.73;;;16.39;64.64
45991;BME280;31721;41.740;-88.000;2022-09-13T12:08:02;98475.67;;;16.21;64.73
45991;BME280;31721;41.740;-88.000;2022-09-13T12:10:38;98475.78;;;16.32;64.67
45991;BME280;31721;41.740;-88.000;2022-09-13T12:13:14;98477.46;;;16.34;64.72
45991;BME280;31721;41.740;-88.000;2022-09-13T12:15:45;98486.70;;;16.31;64.63
45991;BME280;31721;41.740;-88.000;2022-09-13T12:18:16;98488.33;;;16.08;64.96
45991;BME280;31721;41.740;-88.000;2022-09-13T12:20:49;98491.46;;;16.28;64.88
45991;BME280;31721;41.740;-88.000;2022-09-13T12:23:22;98487.41;;;16.15;64.87
45991;BME280;31721;41.740;-88.000;2022-09-13T12:25:54;98493.02;;;16.22;64.85
45991;BME280;31721;41.740;-88.000;2022-09-13T12:28:27;98494.58;;;16.03;64.88
45991;BME280;31721;41.740;-88.000;2022-09-13T12:30:59;98496.76;;;16.10;65.20
45991;BME280;31721;41.740;-88.000;2022-09-13T12:33:29;98500.94;;;16.17;65.25
45991;BME280;31721;41.740;-88.000;2022-09-13T12:36:25;98507.95;;;16.06;65.37
45991;BME280;31721;41.740;-88.000;2022-09-13T12:39:22;98506.23;;;15.89;65.05
45991;BME280;31721;41.740;-88.000;2022-09-13T12:42:09;98512.66;;;16.21;65.39
45991;BME280;31721;41.740;-88.000;2022-09-13T12:44:56;98516.79;;;16.19;65.21
45991;BME280;31721;41.740;-88.000;2022-09-13T12:47:47;98516.29;;;16.19;65.34
45991;BME280;31721;41.740;-88.000;2022-09-13T12:50:36;98515.72;;;16.20;65.38
45991;BME280;31721;41.740;-88.000;2022-09-13T12:53:17;98521.96;;;16.41;65.33
45991;BME280;31721;41.740;-88.000;2022-09-13T12:56:00;98526.61;;;16.45;65.01
45991;BME280;31721;41.740;-88.000;2022-09-13T12:58:45;98534.06;;;16.39;65.22
45991;BME280;31721;41.740;-88.000;2022-09-13T13:01:20;98538.11;;;16.40;65.22
45991;BME280;31721;41.740;-88.000;2022-09-13T13:03:52;98534.99;;;16.42;64.89
45991;BME280;31721;41.740;-88.000;2022-09-13T13:06:25;98538.06;;;16.33;65.30
45991;BME280;31721;41.740;-88.000;2022-09-13T13:08:57;98542.80;;;16.52;65.05
45991;BME280;31721;41.740;-88.000;2022-09-13T13:11:27;98547.70;;;16.51;65.19
45991;BME280;31721;41.740;-88.000;2022-09-13T13:13:57;98553.82;;;16.49;65.19
45991;BME280;31721;41.740;-88.000;2022-09-13T13:16:29;98553.86;;;16.54;65.22
45991;BME280;31721;41.740;-88.000;2022-09-13T13:18:58;98554.52;;;16.65;64.73